sensor_id;sensor_type;location;lat;lon;timestamp;P1;durP1;ratioP1;P2;durP2;ratioP2
8293;SDS011;4185;41.506;24.938;2022-10-04T00:01:04;3.43;;;2.73;;
8293;SDS011;4185;41.506;24.938;2022-10-04T00:03:35;3.17;;;2.97;;
8293;SDS011;4185;41.506;24.938;2022-10-04T00:06:11;3.30;;;2.57;;
8293;SDS011;4185;41.506;24.938;2022-10-04T00:08:43;2.90;;;2.70;;
8293;SDS011;4185;41.506;24.938;2022-10-04T00:11:15;2.93;;;2.60;;
8293;SDS011;4185;41.506;24.938;2022-10-04T00:13:49;2.80;;;2.60;;
8293;SDS011;4185;41.506;24.938;2022-10-04T00:16:20;3.10;;;2.57;;
8293;SDS011;4185;41.506;24.938;2022-10-04T00:19:00;2.90;;;2.50;;
8293;SDS011;4185;41.506;24.938;2022-10-04T00:24:58;2.83;;;2.63;;
8293;SDS011;4185;41.506;24.938;2022-10-04T00:30:41;2.60;;;2.40;;
8293;SDS011;4185;41.506;24.938;2022-10-04T00:33:08;2.40;;;2.20;;
8293;SDS011;4185;41.506;24.938;2022-10-04T00:35:45;2.53;;;2.33;;
8293;SDS011;4185;41.506;24.938;2022-10-04T00:38:14;2.47;;;2.27;;
8293;SDS011;4185;41.506;24.938;2022-10-04T00:40:44;2.90;;;2.60;;
8293;SDS011;4185;41.506;24.938;2022-10-04T00:43:19;2.73;;;2.43;;
8293;SDS011;4185;41.506;24.938;2022-10-04T00:45:51;2.53;;;2.33;;
8293;SDS011;4185;41.506;24.938;2022-10-04T00:48:24;3.00;;;2.80;;
8293;SDS011;4185;41.506;24.938;2022-10-04T00:51:00;2.87;;;2.60;;
8293;SDS011;4185;41.506;24.938;2022-10-04T00:53:38;3.20;;;2.27;;
8293;SDS011;4185;41.506;24.938;2022-10-04T00:56:13;3.13;;;2.37;;
8293;SDS011;4185;41.506;24.938;2022-10-04T00:58:46;4.33;;;3.93;;
8293;SDS011;4185;41.506;24.938;2022-10-04T01:01:29;4.30;;;2.90;;
8293;SDS011;4185;41.506;24.938;2022-10-04T01:04:00;3.17;;;2.97;;
8293;SDS011;4185;41.506;24.938;2022-10-04T01:06:33;2.77;;;2.57;;
8293;SDS011;4185;41.506;24.938;2022-10-04T01:09:04;2.80;;;2.60;;
8293;SDS011;4185;41.506;24.938;2022-10-04T01:11:35;2.80;;;2.60;;
8293;SDS011;4185;41.506;24.938;2022-10-04T01:14:07;3.13;;;2.83;;
8293;SDS011;4185;41.506;24.938;2022-10-04T01:16:39;3.07;;;2.50;;
8293;SDS011;4185;41.506;24.938;2022-10-04T01:19:23;3.80;;;3.03;;
8293;SDS011;4185;41.506;24.938;2022-10-04T01:21:57;2.90;;;2.70;;
8293;SDS011;4185;41.506;24.938;2022-10-04T01:24:33;3.83;;;2.43;;
8293;SDS011;4185;41.506;24.938;2022-10-04T01:27:02;3.93;;;2.80;;
8293;SDS011;4185;41.506;24.938;2022-10-04T01:29:29;3.83;;;2.90;;
8293;SDS011;4185;41.506;24.938;2022-10-04T01:31:57;3.77;;;3.07;;
8293;SDS011;4185;41.506;24.938;2022-10-04T01:34:26;2.87;;;2.57;;
8293;SDS011;4185;41.506;24.938;2022-10-04T01:36:56;2.77;;;2.50;;
8293;SDS011;4185;41.506;24.938;2022-10-04T01:39:25;3.43;;;2.77;;
8293;SDS011;4185;41.506;24.938;2022-10-04T01:41:55;3.23;;;2.63;;
8293;SDS011;4185;41.506;24.938;2022-10-04T01:44:29;3.10;;;2.80;;
8293;SDS011;4185;41.506;24.938;2022-10-04T01:47:02;3.20;;;2.90;;
8293;SDS011;4185;41.506;24.938;2022-10-04T01:49:32;3.63;;;3.13;;
8293;SDS011;4185;41.506;24.938;2022-10-04T01:52:02;2.70;;;2.50;;
8293;SDS011;4185;41.506;24.938;2022-10-04T01:54:35;3.47;;;3.17;;
8293;SDS011;4185;41.506;24.938;2022-10-04T01:57:10;4.30;;;3.00;;
8293;SDS011;4185;41.506;24.938;2022-10-04T01:59:42;2.60;;;2.40;;
8293;SDS011;4185;41.506;24.938;2022-10-04T02:02:16;3.27;;;2.93;;
8293;SDS011;4185;41.506;24.938;2022-10-04T02:04:49;3.00;;;2.80;;
8293;SDS011;4185;41.506;24.938;2022-10-04T02:07:20;2.77;;;2.57;;
8293;SDS011;4185;41.506;24.938;2022-10-04T02:09:48;5.63;;;3.27;;
8293;SDS011;4185;41.506;24.938;2022-10-04T02:12:21;4.03;;;3.20;;
8293;SDS011;4185;41.506;24.938;2022-10-04T02:14:49;3.23;;;2.90;;
8293;SDS011;4185;41.506;24.938;2022-10-04T02:17:18;3.43;;;3.13;;
8293;SDS011;4185;41.506;24.938;2022-10-04T02:19:47;3.30;;;3.00;;
8293;SDS011;4185;41.506;24.938;2022-10-04T02:22:15;3.30;;;2.40;;
8293;SDS011;4185;41.506;24.938;2022-10-04T02:24:43;3.10;;;2.77;;
8293;SDS011;4185;41.506;24.938;2022-10-04T02:27:13;3.43;;;3.20;;
8293;SDS011;4185;41.506;24.938;2022-10-04T02:29:42;3.40;;;3.07;;
8293;SDS011;4185;41.506;24.938;2022-10-04T02:32:09;2.67;;;2.47;;
8293;SDS011;4185;41.506;24.938;2022-10-04T02:34:54;2.73;;;2.43;;
8293;SDS011;4185;41.506;24.938;2022-10-04T02:37:22;4.03;;;2.73;;
8293;SDS011;4185;41.506;24.938;2022-10-04T02:39:51;2.70;;;2.50;;
8293;SDS011;4185;41.506;24.938;2022-10-04T02:42:25;2.77;;;2.57;;
8293;SDS011;4185;41.506;24.938;2022-10-04T02:45:05;2.20;;;2.10;;
8293;SDS011;4185;41.506;24.938;2022-10-04T02:47:42;3.00;;;2.60;;
8293;SDS011;4185;41.506;24.938;2022-10-04T02:50:19;2.60;;;2.40;;
8293;SDS011;4185;41.506;24.938;2022-10-04T02:52:55;3.10;;;2.40;;
8293;SDS011;4185;41.506;24.938;2022-10-04T02:55:26;2.60;;;2.40;;
8293;SDS011;4185;41.506;24.938;2022-10-04T02:57:56;2.83;;;2.03;;
8293;SDS011;4185;41.506;24.938;2022-10-04T03:00:27;2.47;;;2.20;;
8293;SDS011;4185;41.506;24.938;2022-10-04T03:03:08;2.60;;;2.40;;
8293;SDS011;4185;41.506;24.938;2022-10-04T03:05:40;2.33;;;2.23;;
8293;SDS011;4185;41.506;24.938;2022-10-04T03:08:10;5.67;;;3.10;;
8293;SDS011;4185;41.506;24.938;2022-10-04T03:10:37;2.57;;;2.27;;
8293;SDS011;4185;41.506;24.938;2022-10-04T03:13:07;3.07;;;2.87;;
8293;SDS011;4185;41.506;24.938;2022-10-04T03:15:35;2.00;;;1.90;;
8293;SDS011;4185;41.506;24.938;2022-10-04T03:18:03;3.23;;;2.50;;
8293;SDS011;4185;41.506;24.938;2022-10-04T03:20:31;2.67;;;2.47;;
8293;SDS011;4185;41.506;24.938;2022-10-04T03:23:02;2.90;;;2.70;;
8293;SDS011;4185;41.506;24.938;2022-10-04T03:25:44;3.20;;;2.90;;
8293;SDS011;4185;41.506;24.938;2022-10-04T03:28:16;2.70;;;2.50;;
8293;SDS011;4185;41.506;24.938;2022-10-04T03:30:44;2.57;;;2.40;;
8293;SDS011;4185;41.506;24.938;2022-10-04T03:33:17;2.60;;;2.40;;
8293;SDS011;4185;41.506;24.938;2022-10-04T03:35:48;4.30;;;2.70;;
8293;SDS011;4185;41.506;24.938;2022-10-04T03:38:17;3.73;;;2.27;;
8293;SDS011;4185;41.506;24.938;2022-10-04T03:40:47;2.30;;;2.10;;
8293;SDS011;4185;41.506;24.938;2022-10-04T03:43:18;2.33;;;2.13;;
8293;SDS011;4185;41.506;24.938;2022-10-04T03:45:51;2.90;;;2.70;;
8293;SDS011;4185;41.506;24.938;2022-10-04T03:48:26;6.07;;;2.30;;
8293;SDS011;4185;41.506;24.938;2022-10-04T03:50:56;2.53;;;2.33;;
8293;SDS011;4185;41.506;24.938;2022-10-04T03:53:29;2.87;;;2.23;;
8293;SDS011;4185;41.506;24.938;2022-10-04T03:55:59;2.67;;;2.47;;
8293;SDS011;4185;41.506;24.938;2022-10-04T03:58:28;2.33;;;2.13;;
8293;SDS011;4185;41.506;24.938;2022-10-04T04:01:03;3.10;;;2.80;;
8293;SDS011;4185;41.506;24.938;2022-10-04T04:03:49;4.10;;;2.57;;
8293;SDS011;4185;41.506;24.938;2022-10-04T04:06:22;3.70;;;2.80;;
8293;SDS011;4185;41.506;24.938;2022-10-04T04:08:51;2.43;;;2.13;;
8293;SDS011;4185;41.506;24.938;2022-10-04T04:11:21;3.20;;;2.53;;
8293;SDS011;4185;41.506;24.938;2022-10-04T04:13:52;3.60;;;2.50;;
8293;SDS011;4185;41.506;24.938;2022-10-04T04:16:28;4.43;;;2.77;;
8293;SDS011;4185;41.506;24.938;2022-10-04T04:18:58;3.70;;;2.93;;
8293;SDS011;4185;41.506;24.938;2022-10-04T04:21:27;3.23;;;2.53;;
8293;SDS011;4185;41.506;24.938;2022-10-04T04:23:57;2.80;;;2.60;;
8293;SDS011;4185;41.506;24.938;2022-10-04T04:26:28;3.97;;;3.40;;
8293;SDS011;4185;41.506;24.938;2022-10-04T04:29:04;3.10;;;2.80;;
8293;SDS011;4185;41.506;24.938;2022-10-04T04:31:37;2.87;;;2.67;;
8293;SDS011;4185;41.506;24.938;2022-10-04T04:34:15;3.43;;;2.67;;
8293;SDS011;4185;41.506;24.938;2022-10-04T04:36:45;6.83;;;4.37;;
8293;SDS011;4185;41.506;24.938;2022-10-04T04:39:16;5.17;;;4.63;;
8293;SDS011;4185;41.506;24.938;2022-10-04T04:42:02;5.83;;;3.23;;
8293;SDS011;4185;41.506;24.938;2022-10-04T04:44:33;3.13;;;2.90;;
8293;SDS011;4185;41.506;24.938;2022-10-04T04:47:03;4.80;;;3.50;;
8293;SDS011;4185;41.506;24.938;2022-10-04T04:49:35;5.37;;;4.00;;
8293;SDS011;4185;41.506;24.938;2022-10-04T04:52:03;3.53;;;3.07;;
8293;SDS011;4185;41.506;24.938;2022-10-04T04:54:32;3.47;;;3.17;;
8293;SDS011;4185;41.506;24.938;2022-10-04T04:56:59;2.77;;;2.57;;
8293;SDS011;4185;41.506;24.938;2022-10-04T04:59:25;2.93;;;2.63;;
8293;SDS011;4185;41.506;24.938;2022-10-04T05:01:53;3.80;;;3.20;;
8293;SDS011;4185;41.506;24.938;2022-10-04T05:04:22;3.77;;;3.00;;
8293;SDS011;4185;41.506;24.938;2022-10-04T05:07:00;7.43;;;4.43;;
8293;SDS011;4185;41.506;24.938;2022-10-04T05:09:30;4.70;;;3.80;;
8293;SDS011;4185;41.506;24.938;2022-10-04T05:12:01;8.10;;;4.47;;
8293;SDS011;4185;41.506;24.938;2022-10-04T05:14:33;4.13;;;3.40;;
8293;SDS011;4185;41.506;24.938;2022-10-04T05:17:03;8.03;;;4.00;;
8293;SDS011;4185;41.506;24.938;2022-10-04T05:19:32;6.40;;;4.27;;
8293;SDS011;4185;41.506;24.938;2022-10-04T05:22:06;6.83;;;4.80;;
8293;SDS011;4185;41.506;24.938;2022-10-04T05:24:36;5.20;;;4.20;;
8293;SDS011;4185;41.506;24.938;2022-10-04T05:27:05;6.13;;;4.20;;
8293;SDS011;4185;41.506;24.938;2022-10-04T05:29:54;7.60;;;4.33;;
8293;SDS011;4185;41.506;24.938;2022-10-04T05:32:29;5.00;;;4.30;;
8293;SDS011;4185;41.506;24.938;2022-10-04T05:35:12;6.30;;;4.20;;
8293;SDS011;4185;41.506;24.938;2022-10-04T05:37:48;4.87;;;4.30;;
8293;SDS011;4185;41.506;24.938;2022-10-04T05:40:24;6.07;;;4.63;;
8293;SDS011;4185;41.506;24.938;2022-10-04T05:42:57;3.77;;;3.47;;
8293;SDS011;4185;41.506;24.938;2022-10-04T05:45:25;5.10;;;3.60;;
8293;SDS011;4185;41.506;24.938;2022-10-04T05:47:53;4.37;;;3.80;;
8293;SDS011;4185;41.506;24.938;2022-10-04T05:50:25;4.53;;;4.07;;
8293;SDS011;4185;41.506;24.938;2022-10-04T05:53:06;5.70;;;4.07;;
8293;SDS011;4185;41.506;24.938;2022-10-04T05:55:51;4.57;;;3.57;;
8293;SDS011;4185;41.506;24.938;2022-10-04T05:58:32;3.87;;;3.57;;
8293;SDS011;4185;41.506;24.938;2022-10-04T06:06:59;3.43;;;2.87;;
8293;SDS011;4185;41.506;24.938;2022-10-04T06:09:44;3.20;;;2.67;;
8293;SDS011;4185;41.506;24.938;2022-10-04T06:12:23;3.90;;;3.50;;
8293;SDS011;4185;41.506;24.938;2022-10-04T06:15:06;3.63;;;3.27;;
8293;SDS011;4185;41.506;24.938;2022-10-04T06:17:51;4.03;;;3.47;;
8293;SDS011;4185;41.506;24.938;2022-10-04T06:23:29;4.77;;;3.17;;
8293;SDS011;4185;41.506;24.938;2022-10-04T06:26:02;4.17;;;3.10;;
8293;SDS011;4185;41.506;24.938;2022-10-04T06:28:35;3.10;;;2.80;;
8293;SDS011;4185;41.506;24.938;2022-10-04T06:31:13;3.33;;;2.90;;
8293;SDS011;4185;41.506;24.938;2022-10-04T06:34:01;3.30;;;3.00;;
8293;SDS011;4185;41.506;24.938;2022-10-04T06:36:46;3.60;;;3.07;;
8293;SDS011;4185;41.506;24.938;2022-10-04T06:39:41;5.13;;;3.37;;
8293;SDS011;4185;41.506;24.938;2022-10-04T06:48:14;5.43;;;3.67;;
8293;SDS011;4185;41.506;24.938;2022-10-04T06:51:02;5.07;;;3.07;;
8293;SDS011;4185;41.506;24.938;2022-10-04T06:53:40;3.40;;;3.10;;
8293;SDS011;4185;41.506;24.938;2022-10-04T06:59:36;2.77;;;2.50;;
8293;SDS011;4185;41.506;24.938;2022-10-04T07:02:14;2.93;;;2.60;;
8293;SDS011;4185;41.506;24.938;2022-10-04T07:04:48;3.07;;;2.40;;
8293;SDS011;4185;41.506;24.938;2022-10-04T07:07:22;3.03;;;2.83;;
8293;SDS011;4185;41.506;24.938;2022-10-04T07:10:02;4.97;;;2.80;;
8293;SDS011;4185;41.506;24.938;2022-10-04T07:12:41;2.90;;;2.00;;
8293;SDS011;4185;41.506;24.938;2022-10-04T07:15:14;2.93;;;2.63;;
8293;SDS011;4185;41.506;24.938;2022-10-04T07:17:46;2.40;;;2.30;;
8293;SDS011;4185;41.506;24.938;2022-10-04T07:20:17;2.20;;;2.00;;
8293;SDS011;4185;41.506;24.938;2022-10-04T07:22:50;1.90;;;1.80;;
8293;SDS011;4185;41.506;24.938;2022-10-04T07:25:22;2.97;;;1.90;;
8293;SDS011;4185;41.506;24.938;2022-10-04T07:27:54;1.67;;;1.57;;
8293;SDS011;4185;41.506;24.938;2022-10-04T07:30:46;1.60;;;1.50;;
8293;SDS011;4185;41.506;24.938;2022-10-04T07:33:19;1.50;;;1.40;;
8293;SDS011;4185;41.506;24.938;2022-10-04T07:35:49;1.70;;;1.60;;
8293;SDS011;4185;41.506;24.938;2022-10-04T07:38:22;1.13;;;1.10;;
8293;SDS011;4185;41.506;24.938;2022-10-04T07:40:58;1.37;;;1.27;;
8293;SDS011;4185;41.506;24.938;2022-10-04T07:43:31;2.40;;;1.30;;
8293;SDS011;4185;41.506;24.938;2022-10-04T07:46:05;1.53;;;1.43;;
8293;SDS011;4185;41.506;24.938;2022-10-04T07:48:39;1.30;;;1.20;;
8293;SDS011;4185;41.506;24.938;2022-10-04T07:51:13;1.77;;;1.20;;
8293;SDS011;4185;41.506;24.938;2022-10-04T07:53:49;1.57;;;1.47;;
8293;SDS011;4185;41.506;24.938;2022-10-04T07:56:21;2.00;;;1.40;;
8293;SDS011;4185;41.506;24.938;2022-10-04T07:58:59;1.40;;;1.30;;
8293;SDS011;4185;41.506;24.938;2022-10-04T08:01:38;2.73;;;1.40;;
8293;SDS011;4185;41.506;24.938;2022-10-04T08:04:22;1.33;;;1.23;;
8293;SDS011;4185;41.506;24.938;2022-10-04T08:06:58;8.63;;;2.53;;
8293;SDS011;4185;41.506;24.938;2022-10-04T08:09:38;2.23;;;1.43;;
8293;SDS011;4185;41.506;24.938;2022-10-04T08:12:14;1.27;;;1.27;;
8293;SDS011;4185;41.506;24.938;2022-10-04T08:14:53;1.90;;;1.20;;
8293;SDS011;4185;41.506;24.938;2022-10-04T08:17:29;1.17;;;1.07;;
8293;SDS011;4185;41.506;24.938;2022-10-04T08:20:12;2.63;;;1.70;;
8293;SDS011;4185;41.506;24.938;2022-10-04T08:22:52;1.47;;;1.37;;
8293;SDS011;4185;41.506;24.938;2022-10-04T08:25:27;1.77;;;1.40;;
8293;SDS011;4185;41.506;24.938;2022-10-04T08:28:04;1.83;;;1.50;;
8293;SDS011;4185;41.506;24.938;2022-10-04T08:31:06;1.13;;;1.10;;
8293;SDS011;4185;41.506;24.938;2022-10-04T08:33:55;2.73;;;1.17;;
8293;SDS011;4185;41.506;24.938;2022-10-04T08:36:41;1.57;;;1.47;;
8293;SDS011;4185;41.506;24.938;2022-10-04T08:39:20;1.20;;;1.10;;
8293;SDS011;4185;41.506;24.938;2022-10-04T08:42:03;0.90;;;0.90;;
8293;SDS011;4185;41.506;24.938;2022-10-04T08:44:55;2.20;;;1.10;;
8293;SDS011;4185;41.506;24.938;2022-10-04T08:48:02;1.20;;;1.10;;
8293;SDS011;4185;41.506;24.938;2022-10-04T08:51:07;0.90;;;0.90;;
8293;SDS011;4185;41.506;24.938;2022-10-04T08:57:04;1.17;;;1.00;;
8293;SDS011;4185;41.506;24.938;2022-10-04T08:59:51;1.10;;;0.80;;
8293;SDS011;4185;41.506;24.938;2022-10-04T09:06:11;1.10;;;1.03;;
8293;SDS011;4185;41.506;24.938;2022-10-04T09:08:58;0.83;;;0.83;;
8293;SDS011;4185;41.506;24.938;2022-10-04T09:17:45;0.90;;;0.90;;
8293;SDS011;4185;41.506;24.938;2022-10-04T09:20:20;1.90;;;0.97;;
8293;SDS011;4185;41.506;24.938;2022-10-04T09:22:59;1.00;;;1.00;;
8293;SDS011;4185;41.506;24.938;2022-10-04T09:25:47;1.00;;;1.00;;
8293;SDS011;4185;41.506;24.938;2022-10-04T09:28:38;1.60;;;1.20;;
8293;SDS011;4185;41.506;24.938;2022-10-04T09:34:28;1.60;;;1.00;;
8293;SDS011;4185;41.506;24.938;2022-10-04T09:43:15;0.90;;;0.90;;
8293;SDS011;4185;41.506;24.938;2022-10-04T09:46:02;0.83;;;0.83;;
8293;SDS011;4185;41.506;24.938;2022-10-04T09:48:43;0.87;;;0.87;;
8293;SDS011;4185;41.506;24.938;2022-10-04T09:51:26;1.00;;;1.00;;
8293;SDS011;4185;41.506;24.938;2022-10-04T09:54:12;1.50;;;1.13;;
8293;SDS011;4185;41.506;24.938;2022-10-04T09:56:50;0.97;;;0.97;;
8293;SDS011;4185;41.506;24.938;2022-10-04T10:05:32;0.87;;;0.87;;
8293;SDS011;4185;41.506;24.938;2022-10-04T10:08:12;0.90;;;0.90;;
8293;SDS011;4185;41.506;24.938;2022-10-04T10:10:50;1.53;;;0.90;;
8293;SDS011;4185;41.506;24.938;2022-10-04T10:16:54;1.00;;;1.00;;
8293;SDS011;4185;41.506;24.938;2022-10-04T10:19:32;1.00;;;1.00;;
8293;SDS011;4185;41.506;24.938;2022-10-04T10:22:17;2.13;;;1.17;;
8293;SDS011;4185;41.506;24.938;2022-10-04T10:25:02;1.37;;;1.27;;
8293;SDS011;4185;41.506;24.938;2022-10-04T10:27:46;0.90;;;0.90;;
8293;SDS011;4185;41.506;24.938;2022-10-04T10:30:22;0.93;;;0.93;;
8293;SDS011;4185;41.506;24.938;2022-10-04T10:36:04;1.00;;;1.00;;
8293;SDS011;4185;41.506;24.938;2022-10-04T10:38:53;0.80;;;0.80;;
8293;SDS011;4185;41.506;24.938;2022-10-04T10:41:38;0.80;;;0.80;;
8293;SDS011;4185;41.506;24.938;2022-10-04T10:47:23;1.20;;;1.03;;
8293;SDS011;4185;41.506;24.938;2022-10-04T10:50:04;0.80;;;0.80;;
8293;SDS011;4185;41.506;24.938;2022-10-04T10:52:54;1.00;;;1.00;;
8293;SDS011;4185;41.506;24.938;2022-10-04T11:02:03;0.90;;;0.90;;
8293;SDS011;4185;41.506;24.938;2022-10-04T11:05:05;1.33;;;0.90;;
8293;SDS011;4185;41.506;24.938;2022-10-04T11:07:58;0.80;;;0.80;;
8293;SDS011;4185;41.506;24.938;2022-10-04T11:10:51;1.17;;;0.97;;
8293;SDS011;4185;41.506;24.938;2022-10-04T11:16:50;2.43;;;0.90;;
8293;SDS011;4185;41.506;24.938;2022-10-04T11:23:17;0.80;;;0.80;;
8293;SDS011;4185;41.506;24.938;2022-10-04T11:26:08;1.47;;;1.00;;
8293;SDS011;4185;41.506;24.938;2022-10-04T11:28:59;3.30;;;1.10;;
8293;SDS011;4185;41.506;24.938;2022-10-04T11:38:06;0.90;;;0.90;;
8293;SDS011;4185;41.506;24.938;2022-10-04T11:40:44;1.17;;;0.60;;
8293;SDS011;4185;41.506;24.938;2022-10-04T11:43:37;1.20;;;1.10;;
8293;SDS011;4185;41.506;24.938;2022-10-04T11:46:23;1.97;;;0.70;;
8293;SDS011;4185;41.506;24.938;2022-10-04T11:49:05;0.93;;;0.90;;
8293;SDS011;4185;41.506;24.938;2022-10-04T11:51:53;0.90;;;0.90;;
8293;SDS011;4185;41.506;24.938;2022-10-04T11:54:46;0.97;;;0.90;;
8293;SDS011;4185;41.506;24.938;2022-10-04T11:57:47;2.07;;;1.40;;
8293;SDS011;4185;41.506;24.938;2022-10-04T12:00:20;2.03;;;1.10;;
8293;SDS011;4185;41.506;24.938;2022-10-04T12:03:06;0.80;;;0.80;;
8293;SDS011;4185;41.506;24.938;2022-10-04T12:06:02;0.97;;;0.80;;
8293;SDS011;4185;41.506;24.938;2022-10-04T12:08:52;1.00;;;0.90;;
8293;SDS011;4185;41.506;24.938;2022-10-04T12:15:02;0.93;;;0.90;;
8293;SDS011;4185;41.506;24.938;2022-10-04T12:17:49;0.90;;;0.90;;
8293;SDS011;4185;41.506;24.938;2022-10-04T12:24:07;1.37;;;0.83;;
8293;SDS011;4185;41.506;24.938;2022-10-04T12:26:48;1.73;;;1.10;;
8293;SDS011;4185;41.506;24.938;2022-10-04T12:32:35;2.00;;;0.80;;
8293;SDS011;4185;41.506;24.938;2022-10-04T12:35:11;0.70;;;0.70;;
8293;SDS011;4185;41.506;24.938;2022-10-04T12:37:58;1.60;;;0.87;;
8293;SDS011;4185;41.506;24.938;2022-10-04T12:40:38;0.70;;;0.70;;
8293;SDS011;4185;41.506;24.938;2022-10-04T12:43:11;0.90;;;0.87;;
8293;SDS011;4185;41.506;24.938;2022-10-04T12:45:50;1.87;;;0.70;;
8293;SDS011;4185;41.506;24.938;2022-10-04T12:48:28;1.17;;;0.83;;
8293;SDS011;4185;41.506;24.938;2022-10-04T12:51:10;0.60;;;0.60;;
8293;SDS011;4185;41.506;24.938;2022-10-04T12:53:55;0.80;;;0.80;;
8293;SDS011;4185;41.506;24.938;2022-10-04T12:56:30;0.70;;;0.70;;
8293;SDS011;4185;41.506;24.938;2022-10-04T12:59:11;2.07;;;1.60;;
8293;SDS011;4185;41.506;24.938;2022-10-04T13:01:50;0.83;;;0.83;;
8293;SDS011;4185;41.506;24.938;2022-10-04T13:04:30;1.33;;;1.00;;
8293;SDS011;4185;41.506;24.938;2022-10-04T13:07:09;1.20;;;1.10;;
8293;SDS011;4185;41.506;24.938;2022-10-04T13:09:51;0.80;;;0.80;;
8293;SDS011;4185;41.506;24.938;2022-10-04T13:12:31;1.00;;;1.00;;
8293;SDS011;4185;41.506;24.938;2022-10-04T13:15:11;0.90;;;0.90;;
8293;SDS011;4185;41.506;24.938;2022-10-04T13:17:49;1.07;;;0.97;;
8293;SDS011;4185;41.506;24.938;2022-10-04T13:20:43;1.97;;;1.10;;
8293;SDS011;4185;41.506;24.938;2022-10-04T13:23:20;3.10;;;1.50;;
8293;SDS011;4185;41.506;24.938;2022-10-04T13:26:05;1.30;;;1.20;;
8293;SDS011;4185;41.506;24.938;2022-10-04T13:28:43;1.80;;;1.07;;
8293;SDS011;4185;41.506;24.938;2022-10-04T13:31:19;0.80;;;0.80;;
8293;SDS011;4185;41.506;24.938;2022-10-04T13:33:53;0.97;;;0.97;;
8293;SDS011;4185;41.506;24.938;2022-10-04T13:36:41;1.73;;;1.60;;
8293;SDS011;4185;41.506;24.938;2022-10-04T13:39:21;2.27;;;1.50;;
8293;SDS011;4185;41.506;24.938;2022-10-04T13:42:11;2.53;;;2.00;;
8293;SDS011;4185;41.506;24.938;2022-10-04T13:44:54;2.10;;;1.10;;
8293;SDS011;4185;41.506;24.938;2022-10-04T13:47:51;1.40;;;1.30;;
8293;SDS011;4185;41.506;24.938;2022-10-04T13:50:27;0.90;;;0.90;;
8293;SDS011;4185;41.506;24.938;2022-10-04T13:53:07;0.73;;;0.73;;
8293;SDS011;4185;41.506;24.938;2022-10-04T13:56:03;1.10;;;0.97;;
8293;SDS011;4185;41.506;24.938;2022-10-04T13:58:59;1.57;;;0.97;;
8293;SDS011;4185;41.506;24.938;2022-10-04T14:01:39;2.23;;;2.03;;
8293;SDS011;4185;41.506;24.938;2022-10-04T14:04:30;0.83;;;0.83;;
8293;SDS011;4185;41.506;24.938;2022-10-04T14:07:45;1.30;;;0.90;;
8293;SDS011;4185;41.506;24.938;2022-10-04T14:10:28;1.10;;;1.00;;
8293;SDS011;4185;41.506;24.938;2022-10-04T14:13:24;1.63;;;1.40;;
8293;SDS011;4185;41.506;24.938;2022-10-04T14:16:16;1.20;;;1.10;;
8293;SDS011;4185;41.506;24.938;2022-10-04T14:22:03;1.50;;;1.30;;
8293;SDS011;4185;41.506;24.938;2022-10-04T14:28:13;1.47;;;1.17;;
8293;SDS011;4185;41.506;24.938;2022-10-04T14:31:02;2.70;;;1.10;;
8293;SDS011;4185;41.506;24.938;2022-10-04T14:33:58;1.57;;;1.20;;
8293;SDS011;4185;41.506;24.938;2022-10-04T14:36:51;1.83;;;1.20;;
8293;SDS011;4185;41.506;24.938;2022-10-04T14:39:38;2.30;;;1.10;;
8293;SDS011;4185;41.506;24.938;2022-10-04T14:45:27;2.83;;;2.07;;
8293;SDS011;4185;41.506;24.938;2022-10-04T14:51:28;1.70;;;1.57;;
8293;SDS011;4185;41.506;24.938;2022-10-04T14:54:03;3.87;;;2.67;;
8293;SDS011;4185;41.506;24.938;2022-10-04T14:56:38;11.37;;;9.00;;
8293;SDS011;4185;41.506;24.938;2022-10-04T14:59:24;10.23;;;5.83;;
8293;SDS011;4185;41.506;24.938;2022-10-04T15:02:18;12.23;;;8.10;;
8293;SDS011;4185;41.506;24.938;2022-10-04T15:11:13;8.17;;;6.43;;
8293;SDS011;4185;41.506;24.938;2022-10-04T15:13:49;4.33;;;3.53;;
8293;SDS011;4185;41.506;24.938;2022-10-04T15:16:28;5.20;;;3.30;;
8293;SDS011;4185;41.506;24.938;2022-10-04T15:19:03;3.03;;;2.33;;
8293;SDS011;4185;41.506;24.938;2022-10-04T15:21:38;4.50;;;3.77;;
8293;SDS011;4185;41.506;24.938;2022-10-04T15:24:19;3.17;;;2.87;;
8293;SDS011;4185;41.506;24.938;2022-10-04T15:26:52;1.40;;;1.30;;
8293;SDS011;4185;41.506;24.938;2022-10-04T15:29:38;1.43;;;1.20;;
8293;SDS011;4185;41.506;24.938;2022-10-04T15:32:17;1.13;;;1.10;;
8293;SDS011;4185;41.506;24.938;2022-10-04T15:34:57;2.20;;;1.97;;
8293;SDS011;4185;41.506;24.938;2022-10-04T15:37:33;4.87;;;2.87;;
8293;SDS011;4185;41.506;24.938;2022-10-04T15:40:13;7.97;;;3.90;;
8293;SDS011;4185;41.506;24.938;2022-10-04T15:42:55;6.60;;;3.40;;
8293;SDS011;4185;41.506;24.938;2022-10-04T15:45:45;10.97;;;5.70;;
8293;SDS011;4185;41.506;24.938;2022-10-04T15:48:26;27.77;;;13.00;;
8293;SDS011;4185;41.506;24.938;2022-10-04T15:51:06;17.87;;;9.00;;
8293;SDS011;4185;41.506;24.938;2022-10-04T15:53:49;6.00;;;4.17;;
8293;SDS011;4185;41.506;24.938;2022-10-04T15:56:32;2.30;;;2.10;;
8293;SDS011;4185;41.506;24.938;2022-10-04T15:59:13;2.80;;;2.00;;
8293;SDS011;4185;41.506;24.938;2022-10-04T16:02:05;16.53;;;12.40;;
8293;SDS011;4185;41.506;24.938;2022-10-04T16:04:47;8.80;;;6.67;;
8293;SDS011;4185;41.506;24.938;2022-10-04T16:10:47;8.03;;;5.23;;
8293;SDS011;4185;41.506;24.938;2022-10-04T16:16:23;27.73;;;14.90;;
8293;SDS011;4185;41.506;24.938;2022-10-04T16:19:24;17.20;;;10.17;;
8293;SDS011;4185;41.506;24.938;2022-10-04T16:22:13;7.23;;;6.23;;
8293;SDS011;4185;41.506;24.938;2022-10-04T16:24:43;18.07;;;11.40;;
8293;SDS011;4185;41.506;24.938;2022-10-04T16:30:15;19.97;;;14.50;;
8293;SDS011;4185;41.506;24.938;2022-10-04T16:32:58;13.63;;;8.23;;
8293;SDS011;4185;41.506;24.938;2022-10-04T16:35:31;9.47;;;6.43;;
8293;SDS011;4185;41.506;24.938;2022-10-04T16:38:13;24.33;;;14.83;;
8293;SDS011;4185;41.506;24.938;2022-10-04T16:40:55;28.97;;;18.20;;
8293;SDS011;4185;41.506;24.938;2022-10-04T16:43:33;18.50;;;12.50;;
8293;SDS011;4185;41.506;24.938;2022-10-04T16:46:08;13.47;;;9.33;;
8293;SDS011;4185;41.506;24.938;2022-10-04T16:48:48;11.77;;;7.60;;
8293;SDS011;4185;41.506;24.938;2022-10-04T16:51:28;10.13;;;6.93;;
8293;SDS011;4185;41.506;24.938;2022-10-04T16:57:17;15.80;;;12.53;;
8293;SDS011;4185;41.506;24.938;2022-10-04T16:59:49;27.97;;;18.53;;
8293;SDS011;4185;41.506;24.938;2022-10-04T17:02:22;25.23;;;16.37;;
8293;SDS011;4185;41.506;24.938;2022-10-04T17:05:17;12.27;;;8.97;;
8293;SDS011;4185;41.506;24.938;2022-10-04T17:08:07;8.73;;;6.43;;
8293;SDS011;4185;41.506;24.938;2022-10-04T17:13:54;14.23;;;10.37;;
8293;SDS011;4185;41.506;24.938;2022-10-04T17:16:27;6.17;;;5.10;;
8293;SDS011;4185;41.506;24.938;2022-10-04T17:19:11;6.23;;;5.63;;
8293;SDS011;4185;41.506;24.938;2022-10-04T17:21:46;13.57;;;11.23;;
8293;SDS011;4185;41.506;24.938;2022-10-04T17:24:26;10.43;;;8.73;;
8293;SDS011;4185;41.506;24.938;2022-10-04T17:27:17;9.10;;;6.70;;
8293;SDS011;4185;41.506;24.938;2022-10-04T17:30:00;17.63;;;12.83;;
8293;SDS011;4185;41.506;24.938;2022-10-04T17:32:40;14.50;;;11.70;;
8293;SDS011;4185;41.506;24.938;2022-10-04T17:35:22;11.67;;;9.93;;
8293;SDS011;4185;41.506;24.938;2022-10-04T17:38:05;12.17;;;8.50;;
8293;SDS011;4185;41.506;24.938;2022-10-04T17:40:40;11.13;;;8.27;;
8293;SDS011;4185;41.506;24.938;2022-10-04T17:43:19;13.70;;;10.00;;
8293;SDS011;4185;41.506;24.938;2022-10-04T17:45:58;12.27;;;8.67;;
8293;SDS011;4185;41.506;24.938;2022-10-04T17:48:38;14.17;;;9.90;;
8293;SDS011;4185;41.506;24.938;2022-10-04T17:51:32;16.57;;;9.80;;
8293;SDS011;4185;41.506;24.938;2022-10-04T17:54:23;30.20;;;17.93;;
8293;SDS011;4185;41.506;24.938;2022-10-04T17:57:17;19.27;;;11.27;;
8293;SDS011;4185;41.506;24.938;2022-10-04T17:59:53;14.60;;;9.23;;
8293;SDS011;4185;41.506;24.938;2022-10-04T18:02:26;15.13;;;9.43;;
8293;SDS011;4185;41.506;24.938;2022-10-04T18:05:11;8.70;;;5.70;;
8293;SDS011;4185;41.506;24.938;2022-10-04T18:07:44;27.10;;;13.60;;
8293;SDS011;4185;41.506;24.938;2022-10-04T18:10:16;13.87;;;9.27;;
8293;SDS011;4185;41.506;24.938;2022-10-04T18:12:49;11.97;;;7.73;;
8293;SDS011;4185;41.506;24.938;2022-10-04T18:15:24;7.80;;;5.23;;